Time;durP1;ratioP1;P1;durP2;ratioP2;P2;SDS_P1;SDS_P2;PMS_P1;PMS_P2;Temp;Humidity;BMP_temperature;BMP_pressure;BME280_temperature;BME280_humidity;BME280_pressure;Samples;Min_cycle;Max_cycle;Signal;HPM_P1;HPM_P2
2022/03/28 00:00:20;;;;;;;28.70;12.67;;;;;;;39.26;45.60;100975.03;4771809;30;20554;-73
2022/03/28 00:02:46;;;;;;;30.33;16.43;;;;;;;39.13;45.96;100965.84;4771764;30;20478;-73
2022/03/28 00:05:14;;;;;;;32.73;14.73;;;;;;;39.17;45.68;100974.19;4771741;30;20444;-73
2022/03/28 00:07:41;;;;;;;29.83;13.53;;;;;;;39.40;45.36;100973.00;4770415;30;20805;-73
2022/03/28 00:10:08;;;;;;;45.50;14.73;;;;;;;39.34;45.55;100965.31;4770385;30;20471;-72
2022/03/28 00:12:34;;;;;;;31.80;12.07;;;;;;;39.28;45.14;100955.72;4741144;30;20431;-71
2022/03/28 00:15:01;;;;;;;38.23;15.57;;;;;;;39.22;45.25;100950.41;4770428;30;20519;-71
2022/03/28 00:17:28;;;;;;;31.83;15.03;;;;;;;39.03;46.02;100949.81;4770334;30;20428;-71
2022/03/28 00:19:54;;;;;;;40.83;15.17;;;;;;;39.35;45.10;100937.88;4770293;30;20452;-71
2022/03/28 00:22:20;;;;;;;30.83;12.90;;;;;;;39.14;45.88;100934.88;4770043;30;20463;-72
2022/03/28 00:24:46;;;;;;;37.90;14.70;;;;;;;39.18;45.63;100938.63;4755396;30;21092;-70
2022/03/28 00:27:12;;;;;;;29.30;13.60;;;;;;;39.30;45.79;100932.59;4771432;30;20422;-70
2022/03/28 00:29:38;;;;;;;38.83;17.40;;;;;;;39.17;45.98;100931.59;4771172;30;20552;-72
2022/03/28 00:32:05;;;;;;;37.87;15.00;;;;;;;38.90;46.49;100931.75;4771271;30;20415;-73
2022/03/28 00:34:31;;;;;;;30.37;11.50;;;;;;;39.37;45.48;100924.00;4770107;30;20489;-70
2022/03/28 00:36:57;;;;;;;26.43;15.13;;;;;;;38.81;46.69;100917.34;4771013;30;20513;-73
2022/03/28 00:39:23;;;;;;;40.23;14.30;;;;;;;38.91;46.48;100914.34;4769640;30;20425;-73
2022/03/28 00:41:50;;;;;;;30.50;12.97;;;;;;;38.64;47.16;100918.00;4769651;30;20923;-71
2022/03/28 00:44:16;;;;;;;36.13;13.63;;;;;;;38.54;47.19;100910.91;4769587;30;20542;-71
2022/03/28 00:46:43;;;;;;;30.10;13.57;;;;;;;38.76;47.03;100898.50;4771109;30;20789;-73
2022/03/28 00:49:09;;;;;;;40.23;14.73;;;;;;;38.47;47.31;100905.13;4770933;30;20459;-73
2022/03/28 00:51:37;;;;;;;31.20;12.50;;;;;;;38.79;46.75;100908.69;4769582;30;20432;-73
2022/03/28 00:54:06;;;;;;;37.37;15.80;;;;;;;38.59;47.21;100905.38;4769752;30;20454;-71
2022/03/28 00:56:33;;;;;;;32.83;14.17;;;;;;;38.86;46.67;100903.66;4769596;30;20460;-71
2022/03/28 00:58:59;;;;;;;32.80;14.20;;;;;;;39.13;46.32;100897.22;4769492;30;20513;-71
2022/03/28 01:01:26;;;;;;;34.13;14.00;;;;;;;39.25;46.20;100896.66;4769481;30;20460;-72
2022/03/28 01:03:52;;;;;;;33.30;12.83;;;;;;;39.48;45.31;100887.31;4770856;30;20897;-73
2022/03/28 01:06:18;;;;;;;38.50;16.17;;;;;;;39.26;45.88;100882.78;4769529;30;20429;-73
2022/03/28 01:08:44;;;;;;;31.63;12.17;;;;;;;39.32;45.88;100869.84;4770782;30;20968;-71
2022/03/28 01:11:11;;;;;;;36.13;14.60;;;;;;;39.26;45.99;100865.69;4769480;30;20432;-72
2022/03/28 01:13:41;;;;;;;36.10;15.47;;;;;;;39.30;45.71;100869.38;4769262;30;20428;-73
2022/03/28 01:16:08;;;;;;;29.10;14.00;;;;;;;39.38;45.42;100863.97;4770672;30;20499;-73
2022/03/28 01:18:35;;;;;;;32.27;14.53;;;;;;;39.33;45.87;100858.69;4769271;30;20420;-71
2022/03/28 01:21:02;;;;;;;48.77;17.03;;;;;;;39.14;46.04;100844.56;4769252;30;20428;-71
2022/03/28 01:23:29;;;;;;;31.87;13.00;;;;;;;38.91;46.43;100849.25;4769278;30;20435;-73
2022/03/28 01:25:56;;;;;;;28.60;14.60;;;;;;;39.27;45.72;100846.38;4769197;30;20424;-73
2022/03/28 01:28:24;;;;;;;29.13;13.10;;;;;;;39.22;45.64;100841.09;4769144;30;20472;-73
2022/03/28 01:30:51;;;;;;;30.67;11.43;;;;;;;39.21;45.27;100834.88;4769053;30;20892;-72
2022/03/28 01:33:17;;;;;;;39.33;13.70;;;;;;;39.18;45.21;100829.28;4769168;30;20908;-71
2022/03/28 01:35:44;;;;;;;37.33;14.47;;;;;;;38.75;46.39;100834.53;4770329;30;20525;-71
2022/03/28 01:38:12;;;;;;;24.33;12.30;;;;;;;39.01;45.72;100830.00;4770157;30;20795;-73
2022/03/28 01:40:44;;;;;;;36.43;14.00;;;;;;;39.21;45.62;100818.59;4768960;30;20920;-73
2022/03/28 01:43:10;;;;;;;39.53;15.30;;;;;;;39.28;45.30;100828.97;4768595;30;20980;-73
2022/03/28 01:45:36;;;;;;;67.60;15.33;;;;;;;39.07;45.61;100831.47;4768834;30;20496;-71
2022/03/28 01:48:03;;;;;;;47.47;16.93;;;;;;;38.85;46.26;100812.53;4768725;30;20424;-71
2022/03/28 01:50:29;;;;;;;45.37;15.07;;;;;;;38.89;46.44;100810.81;4767977;30;20955;-73
2022/03/28 01:52:55;;;;;;;27.83;13.07;;;;;;;38.89;46.45;100806.19;4769903;30;20881;-73
2022/03/28 01:55:23;;;;;;;36.47;14.20;;;;;;;39.05;46.28;100803.84;4768667;30;20448;-71
2022/03/28 01:57:51;;;;;;;28.40;13.03;;;;;;;39.18;46.28;100794.03;4768532;30;20494;-71
2022/03/28 02:00:20;;;;;;;29.90;14.87;;;;;;;38.82;46.22;100788.78;4768680;30;20837;-73
2022/03/28 02:02:47;;;;;;;21.20;13.30;;;;;;;38.87;46.19;100797.56;4768796;30;20521;-71
2022/03/28 02:05:15;;;;;;;35.80;13.50;;;;;;;38.85;46.51;100799.00;4768551;30;20950;-70
2022/03/28 02:07:43;;;;;;;54.57;16.97;;;;;;;39.09;45.98;100802.09;4768393;30;20819;-73
2022/03/28 02:10:11;;;;;;;42.47;15.90;;;;;;;38.96;46.23;100797.59;4753719;30;20487;-73
2022/03/28 02:12:38;;;;;;;32.73;14.60;;;;;;;38.73;46.07;100794.16;4769573;30;20474;-73
2022/03/28 02:15:06;;;;;;;54.17;15.87;;;;;;;38.99;45.67;100793.47;4768412;30;20948;-73
2022/03/28 02:17:39;;;;;;;36.13;14.47;;;;;;;38.72;46.26;100789.84;4769591;30;20408;-73
2022/03/28 02:20:08;;;;;;;41.43;15.43;;;;;;;38.51;47.07;100788.78;4769602;30;20499;-71
2022/03/28 02:22:39;;;;;;;35.87;15.70;;;;;;;38.64;47.20;100779.75;4768142;30;20975;-71
2022/03/28 02:25:07;;;;;;;30.00;13.63;;;;;;;38.88;46.67;100793.75;4768170;30;20424;-73
2022/03/28 02:27:34;;;;;;;36.13;15.70;;;;;;;39.12;46.49;100782.47;4768243;30;20516;-71
2022/03/28 02:30:00;;;;;;;30.23;12.80;;;;;;;39.12;46.27;100784.41;4769217;30;20456;-71
2022/03/28 02:32:27;;;;;;;35.83;15.87;;;;;;;39.01;46.31;100785.81;4768160;30;20493;-73
2022/03/28 02:34:53;;;;;;;35.00;14.70;;;;;;;38.83;46.19;100780.31;4767984;30;20538;-73
2022/03/28 02:37:19;;;;;;;31.13;15.07;;;;;;;38.77;45.88;100780.78;4769212;30;20820;-73
2022/03/28 02:39:45;;;;;;;34.10;17.43;;;;;;;38.89;45.82;100784.50;4768081;30;20454;-73
2022/03/28 02:42:11;;;;;;;29.10;13.20;;;;;;;39.11;45.69;100782.81;4767772;30;20480;-73
2022/03/28 02:44:37;;;;;;;28.90;13.83;;;;;;;38.81;46.20;100787.19;4769026;30;20459;-70
2022/03/28 02:47:04;;;;;;;37.50;13.47;;;;;;;38.40;47.30;100788.25;4767934;30;20436;-72
2022/03/28 02:49:30;;;;;;;41.13;14.77;;;;;;;38.60;46.77;100778.78;4769082;30;20484;-73
2022/03/28 02:51:56;;;;;;;28.67;15.70;;;;;;;38.34;47.46;100784.88;4767799;30;20479;-73
2022/03/28 02:54:22;;;;;;;34.60;16.00;;;;;;;38.43;47.29;100779.50;4767805;30;20432;-73
2022/03/28 02:56:49;;;;;;;36.07;14.33;;;;;;;38.64;46.96;100783.25;4767859;30;20434;-72
2022/03/28 02:59:15;;;;;;;28.83;13.00;;;;;;;38.62;46.88;100784.69;4769009;30;20436;-73
2022/03/28 03:01:41;;;;;;;41.27;15.07;;;;;;;38.70;46.23;100792.06;4768378;30;20984;-71
2022/03/28 03:04:07;;;;;;;24.80;15.27;;;;;;;38.75;46.12;100799.28;4773746;30;20499;-70
2022/03/28 03:06:33;;;;;;;29.57;11.80;;;;;;;39.01;45.25;100802.88;4773412;30;20555;-73
2022/03/28 03:08:59;;;;;;;31.60;14.83;;;;;;;39.21;44.61;100805.03;4774900;30;20937;-71
2022/03/28 03:11:25;;;;;;;35.93;14.27;;;;;;;38.83;45.22;100803.94;4773785;30;20538;-71
2022/03/28 03:13:53;;;;;;;35.70;15.53;;;;;;;38.93;45.76;100801.75;4773661;30;20511;-71
2022/03/28 03:16:19;;;;;;;46.40;16.03;;;;;;;39.05;45.05;100809.28;4773714;30;20435;-73
2022/03/28 03:18:45;;;;;;;33.70;15.00;;;;;;;38.94;45.39;100813.38;4773604;30;20507;-70
2022/03/28 03:21:11;;;;;;;33.13;12.83;;;;;;;39.00;45.30;100809.41;4773650;30;20523;-71
2022/03/28 03:23:37;;;;;;;38.03;14.60;;;;;;;38.79;45.98;100809.19;4773508;30;20501;-71
2022/03/28 03:26:03;;;;;;;29.80;14.10;;;;;;;38.77;45.99;100811.41;4773576;30;20797;-73
2022/03/28 03:28:29;;;;;;;26.53;14.30;;;;;;;38.80;45.64;100812.72;4773505;30;20983;-73
2022/03/28 03:30:55;;;;;;;38.70;15.47;;;;;;;38.54;45.93;100807.91;4773502;30;20936;-71
2022/03/28 03:33:22;;;;;;;30.43;13.30;;;;;;;38.91;45.20;100806.66;4773508;30;20516;-70
2022/03/28 03:35:48;;;;;;;32.77;13.30;;;;;;;38.95;45.13;100809.56;4773464;30;20458;-71
2022/03/28 03:38:14;;;;;;;32.00;14.87;;;;;;;38.97;45.09;100810.84;4773424;30;20436;-73
2022/03/28 03:40:40;;;;;;;42.27;15.70;;;;;;;39.17;44.81;100811.41;4773413;30;20432;-71
2022/03/28 03:43:07;;;;;;;30.50;13.03;;;;;;;39.17;44.60;100814.94;4773322;30;20490;-73
2022/03/28 03:45:33;;;;;;;33.53;14.63;;;;;;;39.27;44.43;100811.09;4773372;30;20424;-73
2022/03/28 03:47:59;;;;;;;47.23;17.47;;;;;;;39.06;44.84;100810.06;4773579;30;20423;-71
2022/03/28 03:50:26;;;;;;;29.13;14.03;;;;;;;39.04;44.90;100815.81;4773223;30;20459;-71
2022/03/28 03:52:54;;;;;;;39.90;15.27;;;;;;;38.93;45.04;100823.44;4773376;30;20509;-71
2022/03/28 03:55:20;;;;;;;28.10;12.17;;;;;;;39.14;44.74;100834.50;4773345;30;20439;-71
2022/03/28 03:57:47;;;;;;;49.13;15.90;;;;;;;39.22;44.50;100828.31;4773331;30;20428;-73
2022/03/28 04:00:13;;;;;;;45.00;14.53;;;;;;;39.17;44.89;100830.41;4773291;30;20860;-73
2022/03/28 04:02:40;;;;;;;44.03;13.67;;;;;;;38.94;45.44;100825.03;4774367;30;20451;-72
2022/03/28 04:05:06;;;;;;;22.20;11.10;;;;;;;39.09;45.32;100825.72;4773257;30;20890;-72
2022/03/28 04:07:32;;;;;;;30.53;15.17;;;;;;;38.94;45.45;100829.66;4774489;30;20465;-73
2022/03/28 04:10:02;;;;;;;32.30;17.30;;;;;;;38.85;45.58;100826.09;4773016;30;20900;-73
2022/03/28 04:12:29;;;;;;;35.90;15.83;;;;;;;39.08;45.00;100824.13;4774439;30;20407;-73
2022/03/28 04:14:58;;;;;;;33.23;12.13;;;;;;;39.08;44.93;100829.53;4769587;30;20825;-72
2022/03/28 04:17:26;;;;;;;37.80;14.43;;;;;;;38.81;45.79;100825.16;4770414;30;20428;-73
2022/03/28 04:19:52;;;;;;;37.90;13.07;;;;;;;38.81;46.01;100830.56;4770286;30;20500;-72
2022/03/28 04:22:18;;;;;;;31.53;16.43;;;;;;;38.95;45.26;100823.13;4770297;30;20435;-72
2022/03/28 04:24:44;;;;;;;48.83;16.40;;;;;;;38.95;45.03;100829.34;4771459;30;20417;-73
2022/03/28 04:27:10;;;;;;;37.63;13.73;;;;;;;38.90;44.95;100828.69;4769886;30;20946;-73
2022/03/28 04:29:36;;;;;;;46.23;12.70;;;;;;;38.83;45.05;100836.47;4770137;30;20471;-74
2022/03/28 04:32:02;;;;;;;25.80;14.10;;;;;;;39.02;44.72;100837.03;4770029;30;20435;-73
2022/03/28 04:34:28;;;;;;;28.43;15.30;;;;;;;38.94;45.06;100841.31;4770036;30;20451;-71
2022/03/28 04:36:55;;;;;;;31.40;13.47;;;;;;;39.20;44.49;100846.03;4769816;30;20482;-73
2022/03/28 04:39:21;;;;;;;30.37;14.67;;;;;;;39.09;44.76;100859.06;4769843;30;20429;-72
2022/03/28 04:41:47;;;;;;;33.13;14.67;;;;;;;39.19;44.71;100864.25;4769613;30;20571;-73
2022/03/28 04:44:13;;;;;;;42.93;17.33;;;;;;;38.62;46.01;100858.69;4769858;30;20432;-73
2022/03/28 04:46:39;;;;;;;24.40;15.03;;;;;;;38.68;45.88;100867.50;4769710;30;20436;-73
2022/03/28 04:49:05;;;;;;;28.60;11.47;;;;;;;38.86;45.44;100869.19;4769770;30;20479;-73
2022/03/28 04:51:32;;;;;;;35.73;15.50;;;;;;;39.04;44.87;100867.38;4769590;30;20432;-73
2022/03/28 04:53:58;;;;;;;37.70;15.50;;;;;;;38.69;45.85;100867.16;4769761;30;20464;-73
2022/03/28 04:56:24;;;;;;;42.07;19.07;;;;;;;38.92;45.59;100870.66;4769747;30;20443;-73
2022/03/28 04:58:50;;;;;;;43.43;16.17;;;;;;;38.92;44.95;100875.28;4769587;30;20943;-71
2022/03/28 05:01:16;;;;;;;32.63;15.70;;;;;;;38.74;45.32;100881.75;4769587;30;20483;-72
2022/03/28 05:03:42;;;;;;;37.00;13.40;;;;;;;38.86;45.15;100881.97;4769585;30;20469;-72
2022/03/28 05:06:08;;;;;;;29.67;15.30;;;;;;;38.91;45.31;100879.09;4769592;30;20455;-73
2022/03/28 05:08:35;;;;;;;33.93;15.87;;;;;;;38.83;45.59;100883.38;4769465;30;20534;-73
2022/03/28 05:11:01;;;;;;;26.10;13.40;;;;;;;39.22;44.73;100877.16;4768988;30;20612;-72
2022/03/28 05:13:28;;;;;;;27.43;16.40;;;;;;;39.23;44.45;100878.00;4769510;30;20444;-73
2022/03/28 05:15:54;;;;;;;39.23;18.80;;;;;;;39.29;44.16;100886.75;4770693;30;20439;-73
2022/03/28 05:18:20;;;;;;;40.80;18.03;;;;;;;38.77;45.27;100881.91;4754598;30;20416;-72
2022/03/28 05:20:46;;;;;;;46.40;18.50;;;;;;;39.13;44.11;100883.66;4765739;30;20480;-71
2022/03/28 05:23:12;;;;;;;47.87;15.43;;;;;;;39.12;44.25;100882.06;4761342;30;20460;-71
2022/03/28 05:25:38;;;;;;;36.87;16.10;;;;;;;39.04;44.42;100889.06;4753714;30;20493;-71
2022/03/28 05:28:05;;;;;;;34.33;13.03;;;;;;;38.98;44.87;100895.75;4766812;30;20448;-71
2022/03/28 05:30:31;;;;;;;36.20;15.20;;;;;;;39.17;44.53;100898.25;4768269;30;20846;-71
2022/03/28 05:32:57;;;;;;;39.13;14.50;;;;;;;39.20;44.52;100905.72;4768455;30;20495;-71
2022/03/28 05:35:24;;;;;;;52.80;15.50;;;;;;;39.06;44.11;100907.72;4768484;30;20435;-70
2022/03/28 05:37:51;;;;;;;37.10;13.93;;;;;;;39.24;43.73;100901.28;4769934;30;20441;-70
2022/03/28 05:40:17;;;;;;;32.07;13.50;;;;;;;39.09;44.25;100905.19;4768586;30;20468;-70
2022/03/28 05:42:43;;;;;;;26.67;13.67;;;;;;;39.15;44.04;100909.34;4768713;30;20484;-74
2022/03/28 05:45:11;;;;;;;30.90;12.67;;;;;;;38.75;45.21;100905.03;4766780;30;20455;-71
2022/03/28 05:47:37;;;;;;;31.93;12.60;;;;;;;38.91;44.70;100914.34;4768864;30;20435;-73
2022/03/28 05:50:04;;;;;;;22.37;11.73;;;;;;;39.12;44.43;100911.91;4770078;30;20460;-73
2022/03/28 05:52:30;;;;;;;43.27;14.30;;;;;;;39.27;44.15;100925.06;4769904;30;20532;-73
2022/03/28 05:54:56;;;;;;;29.83;14.00;;;;;;;39.45;43.93;100929.44;4768793;30;20428;-73
2022/03/28 05:57:22;;;;;;;41.30;16.40;;;;;;;39.27;44.36;100922.34;4768573;30;20432;-77
2022/03/28 05:59:49;;;;;;;27.50;14.33;;;;;;;39.10;44.68;100931.22;4765404;30;20453;-72
2022/03/28 06:02:15;;;;;;;55.90;17.17;;;;;;;38.89;45.19;100935.56;4758240;30;21034;-72
2022/03/28 06:04:41;;;;;;;45.37;17.10;;;;;;;39.21;44.65;100929.03;4766203;30;20449;-72
2022/03/28 06:07:07;;;;;;;39.80;18.47;;;;;;;38.98;44.90;100939.13;4755706;30;20801;-78
2022/03/28 06:09:33;;;;;;;56.67;18.30;;;;;;;39.07;44.89;100944.59;4758224;30;20468;-73
2022/03/28 06:11:59;;;;;;;49.73;20.77;;;;;;;38.93;45.19;100952.81;4761262;30;20861;-73
2022/03/28 06:14:25;;;;;;;47.83;20.73;;;;;;;38.89;44.96;100954.56;4758197;30;20955;-74
2022/03/28 06:16:51;;;;;;;36.70;16.87;;;;;;;39.12;44.67;100958.81;4759632;30;20464;-76
2022/03/28 06:19:17;;;;;;;29.47;15.83;;;;;;;39.36;44.09;100963.09;4757377;30;20424;-71
2022/03/28 06:21:43;;;;;;;41.73;17.17;;;;;;;39.28;44.16;100966.56;4764176;30;20519;-74
2022/03/28 06:24:09;;;;;;;29.23;13.00;;;;;;;39.28;44.08;100972.00;4766523;30;21065;-72
2022/03/28 06:26:36;;;;;;;39.80;14.20;;;;;;;39.57;43.33;100974.97;4765198;30;20428;-73
2022/03/28 06:29:02;;;;;;;33.63;16.10;;;;;;;39.59;43.12;100982.81;4751386;30;20483;-75
2022/03/28 06:31:28;;;;;;;44.07;17.30;;;;;;;39.56;43.43;100983.44;4748902;30;20930;-73
2022/03/28 06:34:01;;;;;;;41.47;19.30;;;;;;;39.73;43.11;100989.75;4748828;30;20433;-73
2022/03/28 06:36:31;;;;;;;55.83;18.90;;;;;;;39.89;42.63;100994.75;4749515;30;20416;-74
2022/03/28 06:38:57;;;;;;;45.83;17.10;;;;;;;39.89;42.84;101009.13;4748477;30;20440;-73
2022/03/28 06:41:23;;;;;;;40.17;18.17;;;;;;;39.94;42.62;101014.41;4750940;30;20467;-73
2022/03/28 06:43:50;;;;;;;39.93;19.80;;;;;;;39.75;43.11;101017.41;4764473;30;20440;-73
2022/03/28 06:46:16;;;;;;;41.63;17.67;;;;;;;39.65;43.38;101023.09;4767366;30;20439;-73
2022/03/28 06:48:42;;;;;;;33.67;16.90;;;;;;;39.75;43.13;101025.53;4769113;30;20464;-71
2022/03/28 06:51:09;;;;;;;50.43;17.80;;;;;;;39.69;43.41;101026.81;4768029;30;20428;-70
2022/03/28 06:53:35;;;;;;;44.20;21.23;;;;;;;39.75;43.62;101032.88;4765230;30;20436;-71
2022/03/28 06:56:01;;;;;;;51.63;20.40;;;;;;;39.57;43.65;101028.47;4767847;30;20498;-71
2022/03/28 06:58:27;;;;;;;37.67;20.37;;;;;;;39.42;44.32;101037.84;4767974;30;20484;-71
2022/03/28 07:00:53;;;;;;;54.23;20.97;;;;;;;39.27;44.68;101043.66;4767754;30;20448;-71
2022/03/28 07:03:19;;;;;;;38.70;19.07;;;;;;;39.36;44.27;101042.63;4766903;30;20462;-72
2022/03/28 07:05:45;;;;;;;47.53;21.73;;;;;;;39.47;44.12;101051.25;4758023;30;20424;-70
2022/03/28 07:08:12;;;;;;;49.27;21.00;;;;;;;39.42;44.26;101051.44;4759340;30;20452;-70
2022/03/28 07:10:39;;;;;;;45.73;24.27;;;;;;;39.23;44.80;101055.16;4759238;30;20480;-71
2022/03/28 07:13:05;;;;;;;53.00;25.47;;;;;;;39.36;44.59;101052.66;4761647;30;20439;-71
2022/03/28 07:15:31;;;;;;;55.80;22.83;;;;;;;39.60;44.19;101046.88;4766314;30;20432;-71
2022/03/28 07:18:02;;;;;;;39.70;25.13;;;;;;;39.52;44.16;101056.56;4766619;30;20440;-72
2022/03/28 07:20:30;;;;;;;45.00;26.80;;;;;;;39.63;44.10;101054.41;4764698;30;20432;-71
2022/03/28 07:22:57;;;;;;;49.30;28.50;;;;;;;39.60;44.19;101065.88;4766993;30;20805;-71
2022/03/28 07:25:24;;;;;;;72.77;28.00;;;;;;;39.79;43.89;101069.19;4766370;30;20975;-71
2022/03/28 07:27:52;;;;;;;55.57;30.57;;;;;;;39.71;43.90;101078.88;4761134;30;20794;-70
2022/03/28 07:30:19;;;;;;;60.70;31.10;;;;;;;39.42;44.54;101084.78;4758992;30;20467;-73
2022/03/28 07:32:46;;;;;;;63.17;31.30;;;;;;;39.46;44.41;101090.38;4757745;30;20433;-71
2022/03/28 07:35:14;;;;;;;53.37;28.90;;;;;;;39.44;43.96;101098.03;4756201;30;20449;-69
2022/03/28 07:37:41;;;;;;;55.07;26.13;;;;;;;39.50;44.02;101085.94;4757724;30;20508;-72
2022/03/28 07:40:09;;;;;;;59.33;28.53;;;;;;;39.47;44.13;101092.81;4758007;30;20953;-71
2022/03/28 07:42:37;;;;;;;40.40;21.70;;;;;;;39.48;44.11;101097.13;4765743;30;20468;-70
2022/03/28 07:45:05;;;;;;;46.47;25.60;;;;;;;39.44;44.08;101103.47;4768808;30;20416;-71
2022/03/28 07:47:32;;;;;;;45.67;20.23;;;;;;;39.27;44.49;101098.75;4768559;30;20460;-72
2022/03/28 07:49:59;;;;;;;52.70;24.00;;;;;;;39.10;44.61;101102.13;4769368;30;20547;-71
2022/03/28 07:52:26;;;;;;;56.57;24.33;;;;;;;39.12;44.80;101104.53;4770929;30;20448;-71
2022/03/28 07:54:52;;;;;;;45.50;20.30;;;;;;;38.53;45.97;101106.41;4770704;30;20460;-73
2022/03/28 07:57:19;;;;;;;39.73;18.53;;;;;;;39.09;44.63;101119.50;4759155;30;20420;-71
2022/03/28 07:59:47;;;;;;;38.20;17.67;;;;;;;39.00;44.80;101123.28;4769033;30;20492;-70
2022/03/28 08:02:14;;;;;;;37.77;17.50;;;;;;;39.44;43.91;101130.63;4769716;30;20973;-72
2022/03/28 08:04:42;;;;;;;39.60;18.70;;;;;;;39.42;44.04;101130.13;4770065;30;20489;-71
2022/03/28 08:07:09;;;;;;;40.10;21.80;;;;;;;39.63;43.50;101133.16;4770462;30;20539;-70
2022/03/28 08:09:36;;;;;;;45.20;17.13;;;;;;;39.70;42.90;101138.94;4770524;30;20563;-71
2022/03/28 08:12:03;;;;;;;44.30;19.30;;;;;;;39.63;42.94;101133.16;4770465;30;20542;-71
2022/03/28 08:14:29;;;;;;;35.83;18.43;;;;;;;39.88;42.71;101137.91;4770364;30;20452;-72
2022/03/28 08:16:56;;;;;;;48.03;18.50;;;;;;;39.61;42.89;101133.47;4770373;30;20486;-73
2022/03/28 08:19:24;;;;;;;35.97;15.60;;;;;;;39.72;43.08;101137.53;4770076;30;20431;-73
2022/03/28 08:21:50;;;;;;;42.20;18.47;;;;;;;39.84;42.52;101127.97;4770011;30;20455;-71
2022/03/28 08:24:16;;;;;;;44.27;16.30;;;;;;;39.90;42.26;101129.44;4770255;30;20509;-71
2022/03/28 08:26:42;;;;;;;48.83;17.67;;;;;;;39.95;42.57;101143.69;4770056;30;20456;-72
2022/03/28 08:29:09;;;;;;;40.77;18.00;;;;;;;39.80;42.57;101148.75;4770103;30;20479;-73
2022/03/28 08:31:35;;;;;;;40.43;17.90;;;;;;;39.52;43.22;101145.34;4770084;30;20974;-73
2022/03/28 08:34:03;;;;;;;49.87;24.20;;;;;;;39.84;42.40;101150.53;4769592;30;20424;-74
2022/03/28 08:36:29;;;;;;;88.10;36.53;;;;;;;39.94;42.74;101152.16;4759971;30;20444;-71
2022/03/28 08:38:55;;;;;;;52.73;20.40;;;;;;;39.78;43.29;101157.22;4769842;30;20431;-71
2022/03/28 08:41:23;;;;;;;32.40;16.47;;;;;;;39.90;42.88;101149.28;4769925;30;20446;-73
2022/03/28 08:43:49;;;;;;;179.67;83.77;;;;;;;40.01;42.94;101153.28;4769736;30;20476;-72
2022/03/28 08:46:18;;;;;;;39.90;24.00;;;;;;;40.23;42.15;101160.59;4770208;30;20420;-72
2022/03/28 08:48:45;;;;;;;59.07;26.07;;;;;;;40.27;42.53;101163.50;4755261;30;20547;-73
2022/03/28 08:51:16;;;;;;;45.23;21.10;;;;;;;40.18;42.72;101159.94;4769894;30;20428;-73
2022/03/28 08:53:45;;;;;;;38.57;13.90;;;;;;;40.14;42.89;101153.53;4771038;30;20469;-71
2022/03/28 08:56:11;;;;;;;38.70;17.30;;;;;;;39.90;43.07;101154.72;4769884;30;20424;-71
2022/03/28 08:58:37;;;;;;;29.93;14.80;;;;;;;40.07;43.25;101151.25;4754973;30;20452;-71
2022/03/28 09:01:05;;;;;;;33.07;15.47;;;;;;;39.97;43.13;101156.97;4769514;30;20575;-71
2022/03/28 09:03:47;;;;;;;42.13;15.30;;;;;;;40.22;42.92;101150.84;4769775;30;20408;-73
2022/03/28 09:06:39;;;;;;;46.87;18.37;;;;;;;40.51;42.18;101146.78;4769732;30;20439;-71
2022/03/28 09:09:22;;;;;;;35.77;16.10;;;;;;;40.32;42.53;101148.94;4771605;30;20464;-72
2022/03/28 09:11:53;;;;;;;35.87;16.83;;;;;;;40.12;43.04;101158.47;4770901;30;20826;-71
2022/03/28 09:14:31;;;;;;;33.33;16.00;;;;;;;40.32;42.70;101159.81;4769361;30;20459;-71
2022/03/28 09:17:04;;;;;;;57.33;19.27;;;;;;;40.51;41.95;101165.81;4760778;30;20425;-71
2022/03/28 09:19:53;;;;;;;36.17;17.73;;;;;;;40.21;42.94;101170.19;4751633;30;20443;-71
2022/03/28 09:22:34;;;;;;;33.17;16.17;;;;;;;40.36;42.50;101166.22;4751498;30;20433;-71
2022/03/28 09:25:04;;;;;;;45.60;17.33;;;;;;;40.24;42.80;101177.72;4751537;30;20433;-73
2022/03/28 09:27:37;;;;;;;36.73;17.67;;;;;;;40.16;43.10;101175.78;4751343;30;20812;-71
2022/03/28 09:30:10;;;;;;;36.70;14.93;;;;;;;40.32;42.91;101181.56;4751374;30;20477;-71
2022/03/28 09:32:47;;;;;;;41.20;20.20;;;;;;;40.23;43.25;101171.47;4736844;30;20433;-73
2022/03/28 09:35:21;;;;;;;41.30;18.50;;;;;;;40.20;43.19;101166.66;4751356;30;20505;-72
2022/03/28 09:37:52;;;;;;;36.27;16.77;;;;;;;40.52;43.02;101162.00;4752579;30;20431;-72
2022/03/28 09:40:37;;;;;;;38.90;19.03;;;;;;;40.53;42.62;101158.94;4752533;30;20403;-69
2022/03/28 09:43:20;;;;;;;39.57;18.43;;;;;;;40.39;42.94;101160.16;4751056;30;20569;-71
2022/03/28 09:45:53;;;;;;;37.13;17.90;;;;;;;40.38;42.68;101164.00;4751086;30;20930;-70
2022/03/28 09:48:22;;;;;;;39.90;15.70;;;;;;;40.24;43.11;101162.19;4751047;30;20464;-69
2022/03/28 09:51:01;;;;;;;42.83;22.17;;;;;;;40.20;42.54;101166.66;4751051;30;20502;-70
2022/03/28 09:53:31;;;;;;;37.83;15.40;;;;;;;40.31;42.36;101164.44;4752271;30;20420;-74
2022/03/28 09:56:03;;;;;;;41.00;19.37;;;;;;;40.49;42.50;101155.25;4751216;30;20433;-71
2022/03/28 09:58:34;;;;;;;34.47;17.00;;;;;;;40.58;42.40;101147.13;4750799;30;20477;-73
2022/03/28 10:01:01;;;;;;;60.83;15.97;;;;;;;40.22;42.68;101155.50;4750786;30;20513;-73
2022/03/28 10:03:33;;;;;;;31.60;15.43;;;;;;;40.35;42.55;101154.56;4750683;30;20845;-73
2022/03/28 10:06:04;;;;;;;31.17;14.83;;;;;;;40.49;42.36;101149.00;4751983;30;20409;-73
2022/03/28 10:08:31;;;;;;;36.83;14.30;;;;;;;40.63;42.08;101140.72;4750655;30;20433;-73
2022/03/28 10:10:58;;;;;;;45.87;16.63;;;;;;;40.65;42.00;101139.28;4750588;30;20432;-73
2022/03/28 10:13:25;;;;;;;39.80;17.00;;;;;;;40.35;42.36;101132.00;4750238;30;20916;-70
2022/03/28 10:15:52;;;;;;;38.60;16.63;;;;;;;40.17;42.75;101131.16;4750661;30;20440;-70
2022/03/28 10:18:18;;;;;;;41.90;18.70;;;;;;;39.74;43.88;101126.34;4750555;30;20860;-70
2022/03/28 10:20:47;;;;;;;49.43;15.07;;;;;;;39.78;43.50;101119.19;4750364;30;20460;-68
2022/03/28 10:23:17;;;;;;;33.53;16.27;;;;;;;39.97;43.36;101111.59;4751793;30;20437;-69
2022/03/28 10:25:44;;;;;;;41.07;15.90;;;;;;;40.17;42.65;101112.94;4750556;30;20436;-69
2022/03/28 10:28:10;;;;;;;40.60;13.60;;;;;;;40.23;42.62;101108.16;4750781;30;20502;-71
2022/03/28 10:30:36;;;;;;;38.37;16.33;;;;;;;40.09;42.64;101104.78;4750481;30;20488;-71
2022/03/28 10:33:22;;;;;;;71.23;18.30;;;;;;;40.16;43.17;101107.84;4750379;30;20441;-71
2022/03/28 10:36:00;;;;;;;37.83;15.30;;;;;;;40.02;43.17;101107.91;4750498;30;20436;-70
2022/03/28 10:38:27;;;;;;;32.33;16.10;;;;;;;40.32;42.85;101110.88;4750322;30;20421;-69
2022/03/28 10:41:00;;;;;;;31.90;15.00;;;;;;;40.24;43.09;101110.56;4750430;30;20433;-69
2022/03/28 10:43:29;;;;;;;35.63;15.97;;;;;;;40.39;42.43;101116.66;4751194;30;20520;-69
2022/03/28 10:45:57;;;;;;;36.33;15.77;;;;;;;40.58;42.03;101110.94;4749627;30;20489;-71
2022/03/28 10:48:34;;;;;;;43.40;15.37;;;;;;;40.68;42.05;101108.72;4749592;30;20429;-69
2022/03/28 10:51:11;;;;;;;33.40;17.57;;;;;;;40.69;41.93;101101.38;4750235;30;20429;-72
2022/03/28 10:53:42;;;;;;;50.97;17.00;;;;;;;40.76;41.88;101097.06;4750155;30;20511;-71
2022/03/28 10:56:13;;;;;;;38.03;13.80;;;;;;;40.83;42.14;101091.13;4750252;30;20516;-72
2022/03/28 10:58:42;;;;;;;29.47;14.60;;;;;;;41.01;41.20;101094.69;4766500;30;20824;-72
2022/03/28 11:01:11;;;;;;;33.57;14.83;;;;;;;40.76;41.65;101090.78;4767219;30;20468;-71
2022/03/28 11:03:47;;;;;;;43.50;14.63;;;;;;;40.79;41.62;101096.41;4766923;30;20427;-70
2022/03/28 11:06:15;;;;;;;36.60;17.60;;;;;;;40.70;41.66;101086.63;4768767;30;20444;-71
2022/03/28 11:08:58;;;;;;;27.20;14.30;;;;;;;40.60;42.01;101079.63;4768407;30;20912;-71
2022/03/28 11:11:27;;;;;;;51.93;16.33;;;;;;;40.66;41.91;101078.34;4767015;30;20471;-71